Time;durP1;ratioP1;P1;durP2;ratioP2;P2;SDS_P1;SDS_P2;PMS_P1;PMS_P2;Temp;Humidity;BMP_temperature;BMP_pressure;BME280_temperature;BME280_humidity;BME280_pressure;Samples;Min_cycle;Max_cycle;Signal;HPM_P1;HPM_P2
2022/02/14 00:02:10;;;;;;;3.72;3.05;;;2.40;99.90;;;;;;7395245;19;20415;-79
2022/02/14 00:04:35;;;;;;;4.43;3.33;;;2.40;99.90;;;;;;7381812;19;20350;-78
2022/02/14 00:07:01;;;;;;;4.37;3.17;;;2.50;99.90;;;;;;7398401;19;20313;-79
2022/02/14 00:09:27;;;;;;;3.45;3.15;;;2.40;99.90;;;;;;7395352;19;20325;-79
2022/02/14 00:11:53;;;;;;;6.30;3.57;;;2.50;99.90;;;;;;7394499;19;20328;-79
2022/02/14 00:14:20;;;;;;;3.50;3.20;;;2.50;99.90;;;;;;7392062;19;20328;-77
2022/02/14 00:16:46;;;;;;;5.75;3.33;;;2.60;99.90;;;;;;7391941;19;20324;-79
2022/02/14 00:19:12;;;;;;;4.13;3.72;;;2.50;99.90;;;;;;7371013;19;20368;-79
2022/02/14 00:21:38;;;;;;;5.95;3.67;;;2.60;99.90;;;;;;7392653;19;20324;-79
2022/02/14 00:24:06;;;;;;;5.22;3.85;;;2.50;99.90;;;;;;7391384;19;20324;-78
2022/02/14 00:26:33;;;;;;;3.70;3.40;;;2.50;99.90;;;;;;7388666;19;20451;-79
2022/02/14 00:28:58;;;;;;;5.22;4.10;;;2.60;99.90;;;;;;7392098;19;20987;-78
2022/02/14 00:31:24;;;;;;;4.13;3.42;;;2.70;99.90;;;;;;7403668;19;20319;-79
2022/02/14 00:33:50;;;;;;;3.67;3.33;;;2.60;99.90;;;;;;7398802;19;20380;-78
2022/02/14 00:36:16;;;;;;;3.97;3.47;;;2.60;99.90;;;;;;7397940;19;20320;-78
2022/02/14 00:38:42;;;;;;;3.88;3.45;;;2.70;99.90;;;;;;7404468;19;20353;-79
2022/02/14 00:41:09;;;;;;;6.68;3.97;;;2.80;99.90;;;;;;7404198;19;21110;-78
2022/02/14 00:43:35;;;;;;;4.55;3.53;;;2.80;99.90;;;;;;7401759;19;20358;-79
2022/02/14 00:46:00;;;;;;;4.93;3.50;;;2.70;99.90;;;;;;7396714;19;21130;-79
2022/02/14 00:48:26;;;;;;;5.17;3.50;;;2.80;99.90;;;;;;7397426;19;20404;-79
2022/02/14 00:50:53;;;;;;;3.40;3.10;;;2.90;99.90;;;;;;7394280;19;20341;-79
2022/02/14 00:53:19;;;;;;;4.27;3.60;;;2.80;99.90;;;;;;7392906;19;20365;-78
2022/02/14 00:55:45;;;;;;;3.55;3.17;;;2.80;99.90;;;;;;7395924;19;20322;-78
2022/02/14 00:58:11;;;;;;;3.60;3.30;;;2.80;99.90;;;;;;7404968;19;20297;-78
2022/02/14 01:00:37;;;;;;;5.17;3.50;;;2.80;99.90;;;;;;7395711;19;20354;-79
2022/02/14 01:03:03;;;;;;;4.50;3.60;;;2.70;99.90;;;;;;7398580;19;20316;-79
2022/02/14 01:05:29;;;;;;;4.97;3.35;;;2.70;99.90;;;;;;7396168;19;20375;-78
2022/02/14 01:07:54;;;;;;;4.78;3.67;;;2.70;99.90;;;;;;7398763;19;20403;-79
2022/02/14 01:10:21;;;;;;;4.18;3.15;;;2.80;99.90;;;;;;7412863;19;20333;-79
2022/02/14 01:12:46;;;;;;;3.78;3.38;;;2.90;99.90;;;;;;7406832;19;20360;-78
2022/02/14 01:15:12;;;;;;;4.33;3.53;;;2.80;99.90;;;;;;7410454;19;20347;-79
2022/02/14 01:17:38;;;;;;;4.10;2.93;;;2.80;99.90;;;;;;7409724;19;20852;-78
2022/02/14 01:20:07;;;;;;;3.58;3.13;;;2.80;99.90;;;;;;7300731;19;2004518;-78
2022/02/14 01:22:34;;;;;;;3.50;2.70;;;2.80;99.90;;;;;;7412002;19;20321;-78
2022/02/14 01:25:00;;;;;;;4.00;3.23;;;2.80;99.90;;;;;;7416456;19;20343;-79
2022/02/14 01:27:26;;;;;;;4.88;3.55;;;3.00;99.90;;;;;;7410167;19;20337;-79
2022/02/14 01:29:52;;;;;;;6.37;3.23;;;2.80;99.90;;;;;;7413242;19;20328;-79
2022/02/14 01:32:22;;;;;;;3.50;3.20;;;2.70;99.90;;;;;;7419587;19;20361;-78
2022/02/14 01:34:49;;;;;;;4.47;3.35;;;2.80;99.90;;;;;;7405791;19;20356;-79
2022/02/14 01:37:15;;;;;;;3.63;3.00;;;2.80;99.90;;;;;;7410841;19;20793;-78
2022/02/14 01:39:41;;;;;;;3.28;2.97;;;2.80;99.90;;;;;;7412860;19;20398;-78
2022/02/14 01:42:08;;;;;;;3.80;3.38;;;3.00;99.90;;;;;;7410694;19;20336;-79
2022/02/14 01:44:36;;;;;;;3.70;3.28;;;2.80;99.90;;;;;;7402644;19;20344;-77
2022/02/14 01:47:03;;;;;;;3.60;3.03;;;2.90;99.90;;;;;;7404646;19;20332;-79
2022/02/14 01:49:28;;;;;;;4.50;3.30;;;2.80;99.90;;;;;;7394076;19;20348;-79
2022/02/14 01:51:54;;;;;;;3.85;3.28;;;2.80;99.90;;;;;;7411472;19;20780;-78
2022/02/14 01:54:21;;;;;;;3.53;2.90;;;2.90;99.90;;;;;;7416650;19;20349;-79
2022/02/14 01:56:48;;;;;;;4.00;3.13;;;2.90;99.90;;;;;;7415498;19;20349;-79
2022/02/14 01:59:13;;;;;;;4.22;3.30;;;2.90;99.90;;;;;;7405524;19;20330;-79
2022/02/14 02:01:39;;;;;;;3.40;3.10;;;2.80;99.90;;;;;;7413699;19;20317;-78
2022/02/14 02:04:05;;;;;;;3.93;3.33;;;2.80;99.90;;;;;;7408713;19;20330;-79
2022/02/14 02:06:31;;;;;;;3.85;3.05;;;2.90;99.90;;;;;;7412612;19;20341;-79
2022/02/14 02:08:57;;;;;;;3.35;3.05;;;2.80;99.90;;;;;;7409131;19;20327;-80
2022/02/14 02:14:07;;;;;;;3.25;2.92;;;2.90;99.90;;;;;;7399535;19;20320;-79
2022/02/14 02:16:32;;;;;;;4.80;3.00;;;2.80;99.90;;;;;;7389201;19;20357;-78
2022/02/14 02:18:58;;;;;;;3.50;2.97;;;2.80;99.90;;;;;;7405076;19;20373;-79
2022/02/14 02:21:23;;;;;;;3.90;3.10;;;2.70;99.90;;;;;;7404496;19;20328;-79
2022/02/14 02:23:49;;;;;;;3.60;3.30;;;2.70;99.90;;;;;;7406207;19;20316;-79
2022/02/14 02:26:15;;;;;;;4.03;2.92;;;2.60;99.90;;;;;;7397982;19;20926;-78
2022/02/14 02:28:40;;;;;;;3.13;2.83;;;2.60;99.90;;;;;;7401599;19;20347;-78
2022/02/14 02:31:06;;;;;;;3.53;3.08;;;2.50;99.90;;;;;;7405363;19;20736;-78
2022/02/14 02:33:32;;;;;;;3.17;2.88;;;2.70;99.90;;;;;;7378237;19;20373;-79
2022/02/14 02:35:58;;;;;;;3.63;3.25;;;2.50;99.90;;;;;;7399166;19;20423;-79
2022/02/14 02:38:25;;;;;;;4.22;3.50;;;2.50;99.90;;;;;;7404321;19;20723;-79
2022/02/14 02:40:51;;;;;;;3.53;3.22;;;2.70;99.90;;;;;;7400994;19;20328;-78
2022/02/14 02:43:17;;;;;;;3.92;3.47;;;2.50;99.90;;;;;;7399062;19;20322;-78
2022/02/14 02:45:45;;;;;;;3.53;3.20;;;2.50;99.90;;;;;;7403943;19;20361;-79
2022/02/14 02:48:12;;;;;;;3.60;3.20;;;2.40;99.90;;;;;;7404843;19;20343;-78
2022/02/14 02:51:01;;;;;;;3.60;3.30;;;2.40;99.90;;;;;;7404763;19;20317;-80
2022/02/14 02:53:26;;;;;;;3.70;3.30;;;2.40;99.90;;;;;;7300883;19;2004484;-79
2022/02/14 02:55:52;;;;;;;3.87;3.50;;;2.40;99.90;;;;;;7408092;19;20329;-79
2022/02/14 02:58:17;;;;;;;4.25;3.35;;;2.30;99.90;;;;;;7408142;19;20380;-79
2022/02/14 03:00:43;;;;;;;3.80;3.40;;;2.30;99.90;;;;;;7400823;19;20355;-79
2022/02/14 03:03:09;;;;;;;3.77;3.37;;;2.30;99.90;;;;;;7410143;19;20360;-79
2022/02/14 03:05:34;;;;;;;4.97;3.80;;;2.30;99.90;;;;;;7399197;19;20337;-79
2022/02/14 03:08:00;;;;;;;4.67;3.63;;;2.20;99.90;;;;;;7408573;19;20763;-79
2022/02/14 03:10:26;;;;;;;3.88;3.25;;;2.20;99.90;;;;;;7404192;19;22854;-79
2022/02/14 03:12:51;;;;;;;3.38;3.08;;;2.10;99.90;;;;;;7406826;19;20340;-78
2022/02/14 03:15:17;;;;;;;3.80;3.40;;;2.10;99.90;;;;;;7409440;19;20331;-78
2022/02/14 03:17:43;;;;;;;4.18;3.78;;;2.10;99.90;;;;;;7402420;19;20340;-78
2022/02/14 03:20:09;;;;;;;3.57;3.10;;;2.20;99.90;;;;;;7398471;19;20356;-78
2022/02/14 03:22:35;;;;;;;5.03;3.75;;;2.20;99.90;;;;;;7404476;19;20348;-79
2022/02/14 03:25:00;;;;;;;3.87;3.47;;;2.10;99.90;;;;;;7403254;19;20351;-79
2022/02/14 03:27:26;;;;;;;3.80;3.40;;;2.10;99.90;;;;;;7399870;19;20376;-79
2022/02/14 03:29:52;;;;;;;3.90;3.53;;;2.20;99.90;;;;;;7405883;19;20326;-78
2022/02/14 03:32:17;;;;;;;4.20;3.70;;;2.20;99.90;;;;;;7387591;19;20836;-79
2022/02/14 03:34:43;;;;;;;4.82;3.45;;;2.00;99.90;;;;;;7378862;19;20344;-81
2022/02/14 03:37:09;;;;;;;4.20;3.58;;;2.10;99.90;;;;;;7401279;19;20416;-78
2022/02/14 03:39:34;;;;;;;4.33;3.60;;;2.10;99.90;;;;;;7394978;19;20336;-79
2022/02/14 03:42:01;;;;;;;5.78;3.40;;;2.10;99.90;;;;;;7397834;19;20341;-79
2022/02/14 03:44:26;;;;;;;6.00;4.03;;;2.20;99.90;;;;;;7401177;19;20343;-79
2022/02/14 03:46:52;;;;;;;4.80;4.15;;;2.00;99.90;;;;;;7393586;19;20356;-78
2022/02/14 03:49:18;;;;;;;4.70;3.87;;;2.00;99.90;;;;;;7402598;19;20341;-78
2022/02/14 03:51:44;;;;;;;3.87;3.57;;;1.90;99.90;;;;;;7394425;19;20351;-79
2022/02/14 03:54:10;;;;;;;4.10;3.70;;;2.00;99.90;;;;;;7392464;19;20308;-79
2022/02/14 03:56:35;;;;;;;6.07;4.05;;;2.00;99.90;;;;;;7395145;19;20340;-79
2022/02/14 03:59:01;;;;;;;4.22;3.60;;;1.90;99.90;;;;;;7394171;19;20419;-78
2022/02/14 04:01:27;;;;;;;4.93;3.93;;;2.00;99.90;;;;;;7397601;19;20309;-78
2022/02/14 04:03:52;;;;;;;6.25;4.30;;;1.90;99.90;;;;;;7405925;19;20323;-79
2022/02/14 04:06:18;;;;;;;3.97;3.55;;;1.90;99.90;;;;;;7398716;19;20317;-79
2022/02/14 04:08:44;;;;;;;5.13;4.03;;;1.90;99.90;;;;;;7410325;19;20340;-79
2022/02/14 04:11:09;;;;;;;3.85;3.45;;;1.90;99.90;;;;;;7405296;19;20453;-79
2022/02/14 04:13:35;;;;;;;4.47;4.07;;;2.00;99.90;;;;;;7407717;19;20328;-80
2022/02/14 04:16:01;;;;;;;4.00;3.63;;;1.90;99.90;;;;;;7409373;19;20305;-78
2022/02/14 04:18:27;;;;;;;4.20;3.78;;;1.80;99.90;;;;;;7408651;19;20359;-78
2022/02/14 04:20:53;;;;;;;7.53;4.03;;;1.80;99.90;;;;;;7408756;19;20300;-79
2022/02/14 04:23:18;;;;;;;5.80;4.17;;;1.80;99.90;;;;;;7410976;19;20315;-79
2022/02/14 04:25:44;;;;;;;4.68;4.18;;;1.90;99.90;;;;;;7405138;19;20316;-78
2022/02/14 04:28:09;;;;;;;3.80;3.38;;;1.80;99.90;;;;;;7402580;19;20317;-79
2022/02/14 04:30:35;;;;;;;4.07;3.67;;;1.70;99.90;;;;;;7396369;19;20336;-79
2022/02/14 04:33:01;;;;;;;4.70;3.83;;;1.80;99.90;;;;;;7400427;19;20312;-79
2022/02/14 04:35:28;;;;;;;5.50;4.13;;;1.70;99.90;;;;;;7407467;19;20353;-79
2022/02/14 04:37:54;;;;;;;5.65;4.28;;;1.70;99.90;;;;;;7394627;19;20361;-79
2022/02/14 04:40:21;;;;;;;4.32;3.90;;;1.70;99.90;;;;;;7400100;19;20325;-79
2022/02/14 04:42:47;;;;;;;5.72;4.18;;;1.60;99.90;;;;;;7402028;19;20436;-79
2022/02/14 04:45:13;;;;;;;5.37;3.93;;;1.70;99.90;;;;;;7402112;19;20360;-79
2022/02/14 04:47:38;;;;;;;6.38;3.80;;;1.70;99.90;;;;;;7400014;19;20362;-79
2022/02/14 04:50:05;;;;;;;4.37;3.53;;;1.60;99.90;;;;;;7402406;19;20328;-79
2022/02/14 04:52:30;;;;;;;4.50;4.10;;;1.60;99.90;;;;;;7398765;19;20763;-79
2022/02/14 04:55:22;;;;;;;4.30;3.88;;;1.60;99.90;;;;;;7415894;19;20356;-79
2022/02/14 04:57:50;;;;;;;5.30;4.07;;;1.80;99.90;;;;;;7406921;19;20381;-78
2022/02/14 05:00:16;;;;;;;4.45;4.03;;;1.60;99.90;;;;;;7407465;19;20345;-77
2022/02/14 05:02:42;;;;;;;5.93;4.32;;;1.50;99.90;;;;;;7407772;19;20898;-77
2022/02/14 05:05:08;;;;;;;6.18;4.07;;;1.50;99.90;;;;;;7396847;19;20360;-77
2022/02/14 05:07:34;;;;;;;4.25;3.85;;;1.50;99.90;;;;;;7385711;19;20661;-76
2022/02/14 05:10:00;;;;;;;5.60;4.03;;;1.50;99.90;;;;;;7400229;19;20375;-77
2022/02/14 05:12:26;;;;;;;3.88;3.50;;;1.40;99.90;;;;;;7404502;19;20335;-77
2022/02/14 05:14:51;;;;;;;4.32;3.63;;;1.40;99.90;;;;;;7397297;19;20361;-76
2022/02/14 05:17:18;;;;;;;6.47;4.03;;;1.40;99.90;;;;;;7396901;19;20855;-77
2022/02/14 05:19:43;;;;;;;4.18;3.78;;;1.40;99.90;;;;;;7379998;19;20349;-78
2022/02/14 05:22:10;;;;;;;5.85;4.18;;;1.40;99.90;;;;;;7392621;19;20333;-79
2022/02/14 05:24:36;;;;;;;4.15;3.72;;;1.40;99.90;;;;;;7373345;19;21102;-79
2022/02/14 05:27:02;;;;;;;3.85;3.50;;;1.60;99.90;;;;;;7400927;19;20317;-78
2022/02/14 05:29:28;;;;;;;4.83;3.80;;;1.30;99.90;;;;;;7403558;19;20336;-78
2022/02/14 05:31:56;;;;;;;5.67;4.20;;;1.30;99.90;;;;;;7401807;19;21120;-76
2022/02/14 05:34:22;;;;;;;5.23;4.33;;;1.30;99.90;;;;;;7407155;19;20372;-78
2022/02/14 05:36:47;;;;;;;4.30;3.90;;;1.30;99.90;;;;;;7398241;19;20688;-78
2022/02/14 05:39:13;;;;;;;5.00;3.78;;;1.30;99.90;;;;;;7403063;19;20412;-80
2022/02/14 05:41:39;;;;;;;4.97;3.63;;;1.30;99.90;;;;;;7406285;19;20350;-77
2022/02/14 05:44:05;;;;;;;4.03;3.63;;;1.30;99.90;;;;;;7409967;19;20324;-76
2022/02/14 05:46:31;;;;;;;4.22;3.83;;;1.30;99.90;;;;;;7410840;19;20329;-78
2022/02/14 05:48:57;;;;;;;5.20;4.38;;;1.30;99.90;;;;;;7411353;19;20325;-77
2022/02/14 05:51:22;;;;;;;6.45;4.32;;;1.30;99.90;;;;;;7411896;19;20359;-80
2022/02/14 05:53:48;;;;;;;6.85;3.83;;;1.50;99.90;;;;;;7413290;19;20309;-79
2022/02/14 05:56:14;;;;;;;4.63;4.10;;;1.30;99.90;;;;;;7411183;19;20341;-79
2022/02/14 05:58:41;;;;;;;5.30;3.80;;;1.20;99.90;;;;;;7413332;19;20311;-79
2022/02/14 06:01:07;;;;;;;4.20;3.83;;;1.30;99.90;;;;;;7415727;19;20325;-77
2022/02/14 06:03:32;;;;;;;4.80;3.88;;;1.50;99.90;;;;;;7409777;19;20348;-76
2022/02/14 06:05:58;;;;;;;4.87;3.77;;;1.30;99.90;;;;;;7408819;19;20392;-76
2022/02/14 06:08:24;;;;;;;4.50;4.05;;;1.40;99.90;;;;;;7407548;19;20357;-77
2022/02/14 06:10:49;;;;;;;8.13;3.93;;;1.30;99.90;;;;;;7410404;19;20367;-76
2022/02/14 06:13:15;;;;;;;5.50;4.30;;;1.30;99.90;;;;;;7412822;19;20328;-77
2022/02/14 06:15:41;;;;;;;5.00;4.07;;;1.30;99.90;;;;;;7401929;19;20348;-78
2022/02/14 06:18:07;;;;;;;4.53;3.70;;;1.40;99.90;;;;;;7403954;19;20327;-77
2022/02/14 06:20:32;;;;;;;4.50;4.10;;;1.40;99.90;;;;;;7404754;19;20297;-77
2022/02/14 06:22:58;;;;;;;4.30;3.90;;;1.50;99.90;;;;;;7408939;19;20372;-77
2022/02/14 06:25:24;;;;;;;4.25;3.60;;;1.30;99.90;;;;;;7411702;19;20357;-78
2022/02/14 06:27:49;;;;;;;5.40;3.80;;;1.50;99.90;;;;;;7394814;19;20348;-77
2022/02/14 06:30:15;;;;;;;3.97;3.58;;;1.40;99.90;;;;;;7405451;19;20407;-77
2022/02/14 06:32:41;;;;;;;4.47;4.07;;;1.50;99.90;;;;;;7411867;19;20313;-77
2022/02/14 06:35:06;;;;;;;4.00;3.60;;;1.50;99.90;;;;;;7410278;19;20712;-77
2022/02/14 06:37:32;;;;;;;4.18;3.53;;;1.60;99.90;;;;;;7403969;19;20349;-77
2022/02/14 06:39:58;;;;;;;4.37;3.93;;;1.40;99.90;;;;;;7411512;19;20340;-77
2022/02/14 06:42:23;;;;;;;4.43;3.87;;;1.50;99.90;;;;;;7414362;19;20324;-76
2022/02/14 06:44:49;;;;;;;4.68;3.92;;;1.60;99.90;;;;;;7408321;19;20324;-77
2022/02/14 06:47:15;;;;;;;5.73;3.87;;;1.50;99.90;;;;;;7408084;19;20316;-77
2022/02/14 06:49:41;;;;;;;3.70;3.40;;;1.50;99.90;;;;;;7408673;19;20795;-78
2022/02/14 06:52:06;;;;;;;4.55;3.92;;;1.50;99.90;;;;;;7412562;19;20320;-79
2022/02/14 06:54:32;;;;;;;6.77;3.93;;;1.50;99.90;;;;;;7409534;19;20367;-78
2022/02/14 06:56:58;;;;;;;3.70;3.40;;;1.60;99.90;;;;;;7406411;19;20321;-79
2022/02/14 06:59:23;;;;;;;4.00;3.70;;;1.70;99.90;;;;;;7410978;19;20337;-78
2022/02/14 07:01:49;;;;;;;4.37;3.97;;;1.60;99.90;;;;;;7413233;19;20312;-77
2022/02/14 07:04:15;;;;;;;4.57;4.05;;;1.60;99.90;;;;;;7413772;19;20334;-78
2022/02/14 07:06:40;;;;;;;4.03;3.63;;;1.70;99.90;;;;;;7393388;19;20340;-78
2022/02/14 07:09:07;;;;;;;4.90;4.00;;;1.70;99.90;;;;;;7409285;19;20347;-77
2022/02/14 07:11:33;;;;;;;4.18;3.63;;;1.70;99.90;;;;;;7410087;19;20346;-77
2022/02/14 07:13:58;;;;;;;4.87;3.83;;;1.70;99.90;;;;;;7406024;19;20329;-78
2022/02/14 07:16:24;;;;;;;4.47;3.90;;;1.80;99.90;;;;;;7410856;19;20343;-78
2022/02/14 07:18:50;;;;;;;5.80;4.20;;;1.90;99.90;;;;;;7411695;19;20744;-79
2022/02/14 07:21:17;;;;;;;4.77;4.00;;;1.80;99.90;;;;;;7409864;19;20313;-77
2022/02/14 07:23:44;;;;;;;6.70;3.80;;;2.10;99.90;;;;;;7411069;19;20372;-78
2022/02/14 07:26:10;;;;;;;5.87;4.23;;;2.00;99.90;;;;;;7410348;19;20335;-78
2022/02/14 07:28:35;;;;;;;4.05;3.65;;;2.00;99.90;;;;;;7408479;19;20356;-77
2022/02/14 07:31:01;;;;;;;5.00;4.15;;;2.00;99.90;;;;;;7411275;19;20643;-77
2022/02/14 07:33:27;;;;;;;4.30;3.73;;;2.10;99.90;;;;;;7405583;19;21124;-78
2022/02/14 07:35:52;;;;;;;4.57;3.85;;;2.10;99.90;;;;;;7408718;19;20410;-77
2022/02/14 07:38:18;;;;;;;4.43;4.03;;;2.20;99.90;;;;;;7410277;19;20371;-77
2022/02/14 07:40:44;;;;;;;4.47;4.07;;;2.30;99.90;;;;;;7408292;19;20345;-78
2022/02/14 07:43:10;;;;;;;4.13;3.73;;;2.20;99.90;;;;;;7411384;19;20348;-76
2022/02/14 07:45:35;;;;;;;4.95;4.45;;;2.30;99.90;;;;;;7408728;19;20321;-78
2022/02/14 07:48:02;;;;;;;4.57;3.70;;;2.40;99.90;;;;;;7407599;19;20340;-78
2022/02/14 07:50:28;;;;;;;4.03;3.63;;;2.40;99.90;;;;;;7412724;19;20320;-78
2022/02/14 07:52:53;;;;;;;5.00;4.10;;;2.40;99.90;;;;;;7415839;19;20340;-78
2022/02/14 07:55:19;;;;;;;4.83;3.90;;;2.50;99.90;;;;;;7407435;19;20358;-77
2022/02/14 07:57:47;;;;;;;4.10;3.75;;;2.60;99.90;;;;;;7412196;19;20849;-78
2022/02/14 08:00:13;;;;;;;4.70;4.20;;;2.60;99.90;;;;;;7405839;19;20320;-77
2022/02/14 08:02:39;;;;;;;4.80;3.80;;;2.60;99.90;;;;;;7408954;19;20305;-78
2022/02/14 08:05:06;;;;;;;5.20;3.77;;;2.70;99.90;;;;;;7412764;19;20357;-78
2022/02/14 08:07:33;;;;;;;6.27;3.60;;;2.70;99.90;;;;;;7413289;19;20329;-77
2022/02/14 08:09:59;;;;;;;4.22;3.47;;;2.80;99.90;;;;;;7392430;19;20351;-78
2022/02/14 08:12:24;;;;;;;5.73;3.80;;;2.80;99.90;;;;;;7410048;19;20329;-77
2022/02/14 08:14:52;;;;;;;4.30;3.58;;;3.00;99.90;;;;;;7410884;19;20713;-77
2022/02/14 08:17:17;;;;;;;3.58;3.25;;;3.10;99.90;;;;;;7414292;19;20320;-77
2022/02/14 08:19:43;;;;;;;3.55;3.22;;;3.00;99.90;;;;;;7408851;19;20316;-78
2022/02/14 08:22:09;;;;;;;4.88;3.47;;;3.00;99.90;;;;;;7400819;19;20344;-79
2022/02/14 08:24:35;;;;;;;4.73;3.80;;;3.10;99.90;;;;;;7408751;19;20328;-79
2022/02/14 08:27:03;;;;;;;5.60;3.58;;;3.10;99.90;;;;;;7405534;19;20342;-78
2022/02/14 08:29:29;;;;;;;3.90;3.40;;;3.20;99.90;;;;;;7372308;19;20312;-77
2022/02/14 08:31:55;;;;;;;4.95;3.72;;;3.40;99.90;;;;;;7407997;19;20313;-78
2022/02/14 08:34:20;;;;;;;4.45;3.65;;;3.30;99.90;;;;;;7409206;19;20323;-77
2022/02/14 08:36:48;;;;;;;3.88;3.35;;;3.40;99.90;;;;;;7411670;19;20371;-77
2022/02/14 08:39:14;;;;;;;4.28;3.78;;;3.40;99.90;;;;;;7408900;19;20331;-77
2022/02/14 08:41:41;;;;;;;3.88;3.25;;;3.60;99.90;;;;;;7408812;19;20384;-77
2022/02/14 08:44:07;;;;;;;3.83;3.22;;;3.60;99.90;;;;;;7401478;19;20317;-76
2022/02/14 08:46:33;;;;;;;3.22;2.90;;;3.70;99.90;;;;;;7411456;19;20317;-78
2022/02/14 08:49:00;;;;;;;4.18;3.35;;;3.70;99.90;;;;;;7407963;19;20358;-78
2022/02/14 08:51:26;;;;;;;3.45;3.15;;;3.90;99.90;;;;;;7407515;19;20332;-77
2022/02/14 08:53:51;;;;;;;4.37;3.97;;;3.80;99.90;;;;;;7404186;19;20330;-76
2022/02/14 08:56:18;;;;;;;4.32;3.30;;;3.90;99.90;;;;;;7405898;19;20382;-77
2022/02/14 08:58:45;;;;;;;3.63;3.33;;;4.00;99.90;;;;;;7410372;19;20328;-78
2022/02/14 09:01:11;;;;;;;5.70;3.73;;;4.20;99.90;;;;;;7407059;19;20344;-77
2022/02/14 09:03:39;;;;;;;6.15;3.35;;;4.20;99.90;;;;;;7405838;19;20344;-78
2022/02/14 09:06:05;;;;;;;3.60;3.25;;;4.20;99.90;;;;;;7398439;19;20812;-78
2022/02/14 09:08:31;;;;;;;3.60;2.63;;;4.40;99.90;;;;;;7397322;19;20454;-78
2022/02/14 09:10:59;;;;;;;4.07;3.53;;;4.50;99.90;;;;;;7410521;19;20360;-77
2022/02/14 09:13:25;;;;;;;3.92;3.45;;;4.50;99.90;;;;;;7412566;19;20616;-78
2022/02/14 09:15:51;;;;;;;3.85;3.35;;;4.60;99.90;;;;;;7405617;19;20368;-78
2022/02/14 09:18:16;;;;;;;3.40;3.10;;;4.70;99.90;;;;;;7410259;19;20333;-78
2022/02/14 09:20:42;;;;;;;5.55;3.40;;;4.80;99.90;;;;;;7411549;19;20404;-77
2022/02/14 09:23:08;;;;;;;3.40;2.90;;;4.90;99.90;;;;;;7412860;19;21178;-78
2022/02/14 09:25:34;;;;;;;3.70;3.20;;;5.10;99.90;;;;;;7413596;19;20337;-79
2022/02/14 09:28:01;;;;;;;4.63;2.80;;;5.10;99.90;;;;;;7418759;19;20316;-79
2022/02/14 09:30:26;;;;;;;3.13;2.83;;;5.20;99.90;;;;;;7415009;19;20347;-79
2022/02/14 09:32:52;;;;;;;6.95;3.45;;;5.30;99.90;;;;;;7417010;19;20321;-79
2022/02/14 09:35:26;;;;;;;7.38;3.30;;;5.40;99.90;;;;;;7420712;19;20313;-78
2022/02/14 09:37:54;;;;;;;4.18;3.15;;;5.40;99.90;;;;;;7417176;19;20337;-79
2022/02/14 09:40:22;;;;;;;4.13;2.88;;;5.60;99.90;;;;;;7413906;19;20349;-79
2022/02/14 09:42:47;;;;;;;2.88;2.67;;;5.70;99.90;;;;;;7415750;19;20321;-78
2022/02/14 09:45:13;;;;;;;3.85;3.13;;;5.70;99.90;;;;;;7418349;19;20373;-79
2022/02/14 09:47:39;;;;;;;3.63;3.03;;;5.90;99.90;;;;;;7415261;19;20408;-79
2022/02/14 09:50:05;;;;;;;3.13;2.83;;;6.00;99.90;;;;;;7413295;19;20325;-79
2022/02/14 09:52:31;;;;;;;5.72;2.95;;;6.00;99.90;;;;;;7420353;19;20345;-79
2022/02/14 09:54:58;;;;;;;2.87;2.67;;;6.10;99.90;;;;;;7416151;19;20367;-79
2022/02/14 09:57:24;;;;;;;2.97;2.63;;;6.20;99.90;;;;;;7416432;19;20332;-79
2022/02/14 09:59:50;;;;;;;3.30;3.00;;;6.40;99.90;;;;;;7415190;19;20370;-79
2022/02/14 10:02:20;;;;;;;3.00;2.60;;;6.40;99.90;;;;;;7417198;19;20345;-79
2022/02/14 10:05:07;;;;;;;2.47;2.33;;;6.70;99.90;;;;;;7417628;19;20324;-78
2022/02/14 10:07:41;;;;;;;3.88;2.90;;;6.60;99.90;;;;;;7308989;19;2004606;-78
2022/02/14 10:10:11;;;;;;;5.32;3.28;;;6.80;99.90;;;;;;7415251;19;20345;-78
2022/02/14 10:12:41;;;;;;;4.97;3.00;;;6.80;99.90;;;;;;7419270;19;20331;-79
2022/02/14 10:15:07;;;;;;;3.83;2.70;;;6.90;99.90;;;;;;7403851;19;20395;-79
2022/02/14 10:17:59;;;;;;;3.10;2.80;;;7.00;99.90;;;;;;7415575;19;20341;-79
2022/02/14 10:20:26;;;;;;;2.93;2.60;;;7.00;99.90;;;;;;7417393;19;20312;-78
2022/02/14 10:23:02;;;;;;;2.83;2.63;;;7.20;99.90;;;;;;7420096;19;20784;-78
2022/02/14 10:25:29;;;;;;;5.60;3.05;;;7.20;99.90;;;;;;7414268;19;20329;-79
2022/02/14 10:28:12;;;;;;;3.13;2.83;;;7.30;99.90;;;;;;7414787;19;20333;-78
2022/02/14 10:31:05;;;;;;;3.45;2.42;;;7.30;99.90;;;;;;7313918;19;2005471;-78
2022/02/14 10:33:48;;;;;;;4.20;2.78;;;7.40;99.90;;;;;;7416005;19;20336;-79
2022/02/14 10:36:32;;;;;;;3.45;2.60;;;7.50;99.90;;;;;;7311824;19;2004389;-79
2022/02/14 10:39:14;;;;;;;2.92;2.63;;;7.60;99.90;;;;;;7315029;19;2007395;-78
2022/02/14 10:41:41;;;;;;;2.72;2.50;;;7.70;99.90;;;;;;7307561;19;2004827;-79
2022/02/14 10:44:15;;;;;;;3.88;2.75;;;7.90;99.90;;;;;;7417503;19;20304;-79
2022/02/14 10:46:41;;;;;;;2.78;2.50;;;7.90;99.90;;;;;;7418123;19;20339;-78
2022/02/14 10:49:08;;;;;;;2.60;2.40;;;8.00;99.90;;;;;;7415401;19;20339;-79
2022/02/14 10:51:34;;;;;;;2.80;2.42;;;8.00;99.90;;;;;;7419406;19;20313;-79
2022/02/14 10:54:00;;;;;;;2.88;2.60;;;8.10;99.90;;;;;;7412893;19;20332;-78
2022/02/14 10:56:26;;;;;;;4.25;3.03;;;8.10;99.90;;;;;;7418086;19;20340;-79
2022/02/14 10:59:17;;;;;;;3.80;2.80;;;8.20;99.90;;;;;;7417823;19;20311;-79
2022/02/14 11:01:42;;;;;;;3.13;2.60;;;8.30;99.90;;;;;;7310895;19;2004371;-78
2022/02/14 11:04:08;;;;;;;3.40;2.50;;;8.50;99.90;;;;;;7414754;19;20337;-78
2022/02/14 11:06:35;;;;;;;2.47;2.28;;;8.60;99.90;;;;;;7414549;19;20373;-80
2022/02/14 11:09:01;;;;;;;3.00;2.70;;;8.60;99.90;;;;;;7414454;19;20364;-81
2022/02/14 11:11:27;;;;;;;2.90;2.60;;;8.80;99.90;;;;;;7416522;19;20356;-81
2022/02/14 11:13:53;;;;;;;3.05;2.28;;;8.80;99.90;;;;;;7412928;19;20340;-79
2022/02/14 11:16:18;;;;;;;2.40;2.20;;;8.80;99.90;;;;;;7414793;19;20369;-78
2022/02/14 11:18:44;;;;;;;3.25;2.75;;;8.90;99.90;;;;;;7415964;19;20316;-79
2022/02/14 11:21:10;;;;;;;3.78;3.05;;;9.00;99.90;;;;;;7415630;19;20364;-79
2022/02/14 11:23:44;;;;;;;2.73;2.53;;;9.20;99.90;;;;;;7414264;19;20325;-81
2022/02/14 11:26:12;;;;;;;3.88;2.40;;;9.40;99.90;;;;;;7311295;19;2004322;-80
2022/02/14 11:28:42;;;;;;;3.00;2.50;;;9.60;99.90;;;;;;7412888;19;20388;-80
2022/02/14 11:31:17;;;;;;;2.92;2.58;;;9.80;99.90;;;;;;7412990;19;20352;-79
2022/02/14 11:33:53;;;;;;;2.70;2.50;;;9.80;99.90;;;;;;7412398;19;20358;-80
2022/02/14 11:36:19;;;;;;;3.10;2.80;;;10.00;99.90;;;;;;7413394;19;20315;-80
2022/02/14 11:38:52;;;;;;;2.85;2.55;;;10.30;99.90;;;;;;7409739;19;21238;-81
2022/02/14 11:41:27;;;;;;;3.35;2.40;;;10.10;99.90;;;;;;7412266;19;20341;-80
2022/02/14 11:44:16;;;;;;;2.80;2.50;;;10.20;99.90;;;;;;7405171;19;20352;-78
2022/02/14 11:46:55;;;;;;;4.07;2.63;;;10.50;99.90;;;;;;7305348;19;2008908;-79
2022/02/14 11:49:35;;;;;;;2.50;2.30;;;10.70;99.90;;;;;;7299797;19;2005187;-80
2022/02/14 11:52:01;;;;;;;2.78;2.58;;;10.90;99.90;;;;;;7402448;19;20380;-80
2022/02/14 11:54:32;;;;;;;2.60;2.40;;;10.90;99.90;;;;;;7410022;19;20325;-80
2022/02/14 11:57:10;;;;;;;4.72;2.60;;;10.80;99.90;;;;;;7408762;19;20398;-80
2022/02/14 11:59:36;;;;;;;2.83;2.60;;;10.90;99.90;;;;;;7396425;19;20370;-78
2022/02/14 12:02:02;;;;;;;3.10;2.72;;;10.80;99.90;;;;;;7413832;19;20333;-79
2022/02/14 12:04:38;;;;;;;2.85;2.60;;;11.00;99.90;;;;;;7403693;19;20349;-78
2022/02/14 12:07:26;;;;;;;3.42;2.42;;;11.30;99.90;;;;;;7403574;19;20313;-78
2022/02/14 12:09:58;;;;;;;2.47;2.28;;;11.20;99.90;;;;;;7295282;19;2004376;-78
2022/02/14 12:12:45;;;;;;;2.03;1.90;;;11.40;99.80;;;;;;7389735;19;20333;-79
2022/02/14 12:21:03;;;;;;;2.78;2.38;;;11.80;98.20;;;;;;7294039;19;2007613;-80
2022/02/14 12:23:30;;;;;;;3.00;2.53;;;11.90;98.10;;;;;;7390897;19;20352;-78
2022/02/14 12:25:56;;;;;;;5.60;2.00;;;12.10;99.00;;;;;;7398916;19;20741;-79
2022/02/14 12:28:22;;;;;;;2.83;2.40;;;12.10;97.10;;;;;;7401419;19;20323;-80
2022/02/14 12:30:48;;;;;;;2.20;2.08;;;12.20;98.50;;;;;;7400587;19;20324;-79
2022/02/14 12:33:14;;;;;;;3.55;2.30;;;12.60;95.80;;;;;;7403205;19;20309;-79
2022/02/14 12:35:45;;;;;;;3.38;2.20;;;12.40;97.20;;;;;;7392439;19;20360;-79
2022/02/14 12:38:12;;;;;;;2.50;2.30;;;12.50;97.30;;;;;;7405464;19;20316;-80
2022/02/14 12:41:01;;;;;;;3.30;2.55;;;12.30;93.30;;;;;;7407520;19;20773;-81
2022/02/14 12:43:33;;;;;;;2.65;2.20;;;12.10;94.30;;;;;;7303707;19;2004416;-78
2022/02/14 12:46:09;;;;;;;3.72;2.30;;;12.00;94.90;;;;;;7399366;19;20359;-79
2022/02/14 12:48:40;;;;;;;2.33;2.13;;;12.30;95.30;;;;;;7297067;19;2004476;-79
2022/02/14 12:51:12;;;;;;;3.03;2.30;;;12.20;93.40;;;;;;7405350;19;20353;-79
2022/02/14 12:53:39;;;;;;;2.92;2.53;;;11.90;94.00;;;;;;7400244;19;20348;-79
2022/02/14 12:56:16;;;;;;;2.67;2.38;;;12.10;95.00;;;;;;7405420;19;20353;-80
2022/02/14 12:58:56;;;;;;;3.43;2.27;;;11.90;92.30;;;;;;7405935;19;20316;-79
2022/02/14 13:01:23;;;;;;;4.05;2.50;;;12.10;94.40;;;;;;7402822;19;20375;-79
2022/02/14 13:04:01;;;;;;;2.08;1.92;;;12.10;93.70;;;;;;7411449;19;20342;-78
2022/02/14 13:06:36;;;;;;;2.50;2.30;;;12.20;93.30;;;;;;7302995;19;2004518;-79